createdAt,value
2018-10-03T00:01:51.697Z,81.34
2018-10-03T00:04:20.170Z,81.72
2018-10-03T00:06:48.665Z,82.06
2018-10-03T00:09:17.231Z,81.58
2018-10-03T00:11:45.708Z,82.16
2018-10-03T00:14:14.197Z,82.30
2018-10-03T00:16:42.757Z,82.36
2018-10-03T00:19:11.254Z,82.62
2018-10-03T00:21:39.818Z,82.96
2018-10-03T00:24:08.350Z,82.27
2018-10-03T00:26:36.906Z,82.50
2018-10-03T00:29:05.375Z,82.80
2018-10-03T00:31:33.865Z,82.26
2018-10-03T00:34:02.406Z,83.95
2018-10-03T00:36:30.894Z,83.16
2018-10-03T00:38:59.371Z,83.14
2018-10-03T00:41:27.863Z,82.91
2018-10-03T00:43:56.315Z,82.74
2018-10-03T00:46:24.814Z,83.47
2018-10-03T00:48:53.353Z,82.98
2018-10-03T00:51:21.888Z,82.61
2018-10-03T00:53:50.450Z,83.03
2018-10-03T00:56:19.028Z,83.01
2018-10-03T00:58:47.517Z,83.15
2018-10-03T01:01:16.015Z,83.03
2018-10-03T01:03:44.505Z,82.88
2018-10-03T01:06:12.999Z,82.90
2018-10-03T01:08:41.579Z,82.99
2018-10-03T01:11:10.061Z,83.47
2018-10-03T01:13:38.593Z,83.03
2018-10-03T01:16:07.102Z,83.22
2018-10-03T01:18:35.631Z,83.65
2018-10-03T01:21:04.134Z,83.04
2018-10-03T01:23:32.616Z,83.34
2018-10-03T01:26:01.157Z,83.10
2018-10-03T01:28:29.697Z,83.27
2018-10-03T01:30:58.238Z,83.70
2018-10-03T01:33:26.744Z,83.13
2018-10-03T01:35:55.301Z,83.56
2018-10-03T01:38:23.897Z,83.10
2018-10-03T01:40:52.298Z,82.88
2018-10-03T01:43:20.856Z,83.11
2018-10-03T01:45:49.395Z,82.83
2018-10-03T01:48:17.900Z,83.13
2018-10-03T01:50:46.385Z,83.35
2018-10-03T01:53:14.907Z,82.91
2018-10-03T01:55:43.438Z,82.95
2018-10-03T01:58:11.962Z,83.49
2018-10-03T02:00:40.457Z,83.38
2018-10-03T02:03:08.961Z,83.50
2018-10-03T02:05:37.476Z,83.86
2018-10-03T02:08:05.997Z,83.75
2018-10-03T02:10:34.507Z,83.34
2018-10-03T02:13:02.963Z,83.17
2018-10-03T02:15:31.473Z,83.06
2018-10-03T02:18:00.014Z,82.85
2018-10-03T02:20:28.550Z,82.99
2018-10-03T02:22:57.079Z,83.04
2018-10-03T02:25:25.570Z,82.84
2018-10-03T02:27:54.041Z,82.86
2018-10-03T02:30:22.518Z,82.79
2018-10-03T02:32:51.034Z,83.23
2018-10-03T02:35:19.530Z,82.57
2018-10-03T02:37:48.021Z,83.08
2018-10-03T02:40:16.509Z,82.45
2018-10-03T02:42:44.999Z,82.47
2018-10-03T02:45:13.526Z,83.04
2018-10-03T02:47:42.013Z,82.78
2018-10-03T02:50:10.501Z,81.99
2018-10-03T02:52:39.085Z,82.13
2018-10-03T02:55:07.595Z,82.30
2018-10-03T02:57:36.102Z,81.93
2018-10-03T03:00:04.698Z,82.63
2018-10-03T03:02:33.243Z,81.90
2018-10-03T03:05:01.712Z,81.40
2018-10-03T03:07:30.257Z,82.07
2018-10-03T03:09:58.814Z,82.24
2018-10-03T03:12:27.305Z,82.39
2018-10-03T03:14:55.889Z,82.54
2018-10-03T03:17:24.361Z,82.59
2018-10-03T03:19:52.905Z,83.80
2018-10-03T03:22:21.379Z,83.81
2018-10-03T03:24:50.050Z,84.18
2018-10-03T03:27:18.625Z,84.34
2018-10-03T03:29:47.138Z,84.68
2018-10-03T03:32:15.622Z,85.40
2018-10-03T03:34:44.085Z,85.09
2018-10-03T03:37:12.611Z,86.03
2018-10-03T03:39:41.070Z,85.93
2018-10-03T03:42:09.640Z,85.51
2018-10-03T03:44:38.199Z,86.09
2018-10-03T03:47:07.013Z,86.26
2018-10-03T03:49:35.475Z,86.74
2018-10-03T03:52:04.119Z,86.88
2018-10-03T03:54:32.640Z,86.15
2018-10-03T03:57:01.085Z,85.15
2018-10-03T03:59:29.593Z,84.60
2018-10-03T04:01:58.129Z,84.23
2018-10-03T04:04:27.558Z,84.62
2018-10-03T04:06:56.688Z,84.41
2018-10-03T04:09:25.281Z,83.87
2018-10-03T04:11:53.833Z,84.08
2018-10-03T04:14:22.336Z,83.97
2018-10-03T04:16:50.901Z,83.84
2018-10-03T04:19:19.409Z,84.21
2018-10-03T04:21:47.978Z,84.71
2018-10-03T04:24:16.496Z,84.81
2018-10-03T04:26:44.997Z,84.51
2018-10-03T04:29:13.521Z,84.68
2018-10-03T04:31:42.002Z,84.41
2018-10-03T04:34:10.601Z,83.81
2018-10-03T04:36:39.086Z,83.52
2018-10-03T04:39:08.273Z,83.87
2018-10-03T04:41:37.353Z,83.99
2018-10-03T04:44:05.906Z,83.18
2018-10-03T04:46:34.493Z,83.98
2018-10-03T04:49:03.069Z,84.01
2018-10-03T04:51:31.525Z,83.97
2018-10-03T04:54:00.050Z,84.15
2018-10-03T04:56:28.564Z,83.77
2018-10-03T04:58:57.166Z,83.98
2018-10-03T05:01:25.733Z,83.69
2018-10-03T05:03:54.205Z,83.86
2018-10-03T05:06:22.961Z,83.13
2018-10-03T05:08:52.065Z,83.07
2018-10-03T05:11:20.652Z,83.53
2018-10-03T05:13:49.202Z,83.05
2018-10-03T05:16:17.795Z,84.01
2018-10-03T05:18:46.462Z,84.12
2018-10-03T05:21:15.011Z,84.54
2018-10-03T05:23:43.526Z,85.05
2018-10-03T05:26:12.037Z,85.60
2018-10-03T05:28:40.597Z,85.99
2018-10-03T05:31:09.126Z,85.86
2018-10-03T05:33:37.970Z,86.26
2018-10-03T05:36:06.654Z,87.31
2018-10-03T05:38:35.190Z,86.95
2018-10-03T05:41:03.689Z,86.54
2018-10-03T05:43:32.208Z,86.11
2018-10-03T05:46:00.718Z,85.92
2018-10-03T05:48:29.235Z,86.11
2018-10-03T05:50:57.737Z,85.74
2018-10-03T05:53:26.257Z,86.02
2018-10-03T05:55:54.818Z,85.85
2018-10-03T05:58:23.304Z,85.49
2018-10-03T06:00:52.364Z,85.12
2018-10-03T06:03:21.174Z,85.04
2018-10-03T06:05:49.666Z,84.98
2018-10-03T06:08:18.173Z,84.93
2018-10-03T06:10:46.788Z,84.51
2018-10-03T06:13:15.326Z,84.49
2018-10-03T06:15:43.994Z,84.74
2018-10-03T06:18:12.551Z,84.24
2018-10-03T06:20:41.050Z,83.52
2018-10-03T06:23:09.538Z,83.30
2018-10-03T06:25:38.091Z,83.99
2018-10-03T06:28:06.637Z,83.93
2018-10-03T06:30:35.239Z,83.42
2018-10-03T06:33:03.746Z,83.32
2018-10-03T06:35:32.285Z,82.53
2018-10-03T06:38:00.799Z,82.44
2018-10-03T06:40:29.386Z,81.96
2018-10-03T06:42:57.862Z,82.12
2018-10-03T06:45:26.348Z,81.76
2018-10-03T06:47:54.874Z,80.81
2018-10-03T06:50:23.411Z,80.86
2018-10-03T06:52:51.921Z,81.16
2018-10-03T06:55:20.449Z,80.86
2018-10-03T06:57:48.926Z,80.75
2018-10-03T07:00:17.489Z,81.02
2018-10-03T07:02:46.127Z,81.03
2018-10-03T07:05:14.680Z,80.97
2018-10-03T07:07:43.175Z,81.18
2018-10-03T07:10:11.682Z,80.59
2018-10-03T07:12:40.179Z,80.15
2018-10-03T07:15:09.591Z,79.73
2018-10-03T07:17:38.351Z,79.60
2018-10-03T07:20:06.899Z,78.47
2018-10-03T07:22:35.462Z,77.62
2018-10-03T07:25:04.490Z,76.82
2018-10-03T07:27:39.633Z,75.97
2018-10-03T07:30:08.326Z,73.92
2018-10-03T07:32:36.873Z,73.54
2018-10-03T07:35:05.378Z,72.13
2018-10-03T07:37:33.891Z,72.74
2018-10-03T07:40:02.411Z,71.71
2018-10-03T07:42:31.784Z,71.99
2018-10-03T07:45:00.311Z,71.62
2018-10-03T07:47:28.803Z,71.26
2018-10-03T07:49:57.305Z,71.69
2018-10-03T07:52:26.511Z,71.36
2018-10-03T07:54:55.042Z,71.06
2018-10-03T07:57:23.873Z,70.88
2018-10-03T07:59:52.342Z,69.64
2018-10-03T08:02:20.883Z,70.33
2018-10-03T08:04:49.353Z,69.38
2018-10-03T08:07:18.492Z,69.61
2018-10-03T08:09:46.973Z,69.99
2018-10-03T08:12:15.554Z,69.51
2018-10-03T08:14:45.386Z,69.64
2018-10-03T08:17:13.937Z,68.86
2018-10-03T08:19:42.521Z,69.28
2018-10-03T08:22:11.046Z,68.81
2018-10-03T08:24:39.620Z,67.66
2018-10-03T08:27:08.179Z,67.23
2018-10-03T08:29:36.705Z,66.98
2018-10-03T08:32:05.174Z,66.67
2018-10-03T08:34:33.708Z,65.67
2018-10-03T08:37:02.490Z,65.28
2018-10-03T08:39:31.035Z,63.71
2018-10-03T08:41:59.678Z,62.79
2018-10-03T08:44:28.187Z,62.21
2018-10-03T08:46:56.707Z,62.05
2018-10-03T08:49:25.305Z,62.24
2018-10-03T08:51:53.880Z,60.11
2018-10-03T08:54:22.297Z,61.56
2018-10-03T08:56:50.798Z,60.50
2018-10-03T08:59:19.293Z,61.28
2018-10-03T09:01:47.881Z,61.23
2018-10-03T09:04:16.466Z,60.10
2018-10-03T09:06:45.039Z,61.50
2018-10-03T09:09:13.692Z,61.00
2018-10-03T09:11:42.318Z,59.34
2018-10-03T09:14:11.174Z,58.47
2018-10-03T09:16:39.785Z,58.94
2018-10-03T09:19:08.517Z,58.40
2018-10-03T09:21:37.027Z,58.20
2018-10-03T09:24:05.627Z,58.28
2018-10-03T09:26:34.167Z,59.08
2018-10-03T09:29:02.701Z,58.94
2018-10-03T09:31:31.560Z,59.10
2018-10-03T09:34:00.062Z,57.98
2018-10-03T09:36:28.650Z,58.62
2018-10-03T09:38:57.317Z,59.48
2018-10-03T09:41:25.813Z,59.57
2018-10-03T09:43:54.485Z,60.71
2018-10-03T09:46:23.073Z,61.20
2018-10-03T09:48:51.571Z,60.04
2018-10-03T09:51:20.157Z,60.36
2018-10-03T09:53:48.649Z,59.79
2018-10-03T09:56:17.209Z,59.79
2018-10-03T09:58:45.678Z,58.27
2018-10-03T10:01:20.061Z,57.76
2018-10-03T10:03:48.550Z,56.85
2018-10-03T10:06:17.026Z,55.94
2018-10-03T10:08:45.563Z,57.13
2018-10-03T10:11:14.072Z,55.22
2018-10-03T10:13:42.758Z,55.99
2018-10-03T10:16:11.321Z,54.42
2018-10-03T10:18:39.928Z,55.21
2018-10-03T10:21:08.421Z,54.01
2018-10-03T10:23:36.973Z,53.76
2018-10-03T10:26:05.677Z,54.99
2018-10-03T10:28:34.267Z,54.83
2018-10-03T10:31:02.770Z,54.64
2018-10-03T10:33:31.362Z,56.35
2018-10-03T10:35:59.854Z,56.64
2018-10-03T10:38:28.799Z,55.72
2018-10-03T10:40:57.424Z,56.49
2018-10-03T10:43:26.021Z,57.81
2018-10-03T10:45:54.511Z,59.25
2018-10-03T10:48:22.973Z,56.09
2018-10-03T10:50:51.494Z,56.66
2018-10-03T10:53:20.038Z,56.80
2018-10-03T10:55:48.569Z,55.70
2018-10-03T10:58:17.054Z,55.97
2018-10-03T11:00:45.626Z,54.67
2018-10-03T11:03:14.133Z,55.96
2018-10-03T11:05:42.683Z,55.38
2018-10-03T11:08:11.269Z,56.47
2018-10-03T11:10:39.847Z,55.83
2018-10-03T11:13:08.421Z,56.25
2018-10-03T11:15:36.955Z,54.79
2018-10-03T11:18:05.483Z,53.74
2018-10-03T11:20:34.546Z,53.58
2018-10-03T11:23:03.075Z,53.91
2018-10-03T11:25:31.595Z,53.75
2018-10-03T11:29:03.277Z,54.63
2018-10-03T11:31:32.085Z,53.27
2018-10-03T11:34:00.606Z,53.29
2018-10-03T11:36:29.150Z,54.03
2018-10-03T11:38:57.666Z,55.63
2018-10-03T11:41:26.264Z,55.10
2018-10-03T11:43:54.817Z,55.06
2018-10-03T11:46:23.353Z,55.04
2018-10-03T11:48:51.930Z,53.22
2018-10-03T11:51:20.475Z,53.18
2018-10-03T11:53:49.053Z,53.34
2018-10-03T11:56:17.529Z,54.13
2018-10-03T11:58:46.106Z,54.40
2018-10-03T12:01:14.601Z,53.52
2018-10-03T12:03:43.125Z,52.15
2018-10-03T12:06:11.626Z,51.57
2018-10-03T12:08:40.149Z,53.65
2018-10-03T12:11:09.575Z,51.20
2018-10-03T12:13:38.110Z,52.21
2018-10-03T12:16:06.567Z,51.11
2018-10-03T12:18:35.078Z,49.10
2018-10-03T12:21:03.587Z,50.44
2018-10-03T12:23:32.078Z,49.44
2018-10-03T12:26:00.618Z,50.46
2018-10-03T12:28:29.174Z,51.49
2018-10-03T12:30:57.639Z,50.93
2018-10-03T12:33:32.817Z,50.20
2018-10-03T12:36:01.292Z,50.95
2018-10-03T12:38:29.774Z,51.28
2018-10-03T12:40:58.262Z,53.16
2018-10-03T12:43:26.739Z,52.17
2018-10-03T12:45:55.277Z,52.41
2018-10-03T12:48:24.486Z,53.38
2018-10-03T12:50:53.038Z,54.54
2018-10-03T12:53:21.634Z,53.40
2018-10-03T12:55:50.155Z,54.39
2018-10-03T12:58:18.671Z,51.98
2018-10-03T13:00:53.672Z,49.99
2018-10-03T13:03:22.137Z,50.08
2018-10-03T13:05:50.649Z,48.38
2018-10-03T13:08:19.179Z,49.14
2018-10-03T13:10:47.723Z,49.77
2018-10-03T13:13:16.282Z,49.66
2018-10-03T13:15:44.918Z,51.80
2018-10-03T13:18:13.485Z,51.95
2018-10-03T13:20:41.998Z,52.43
2018-10-03T13:23:10.535Z,53.81
2018-10-03T13:25:39.039Z,52.16
2018-10-03T13:28:07.591Z,52.32
2018-10-03T13:30:36.138Z,53.46
2018-10-03T13:33:04.660Z,53.66
2018-10-03T13:35:33.167Z,54.31
2018-10-03T13:38:01.735Z,54.24
2018-10-03T13:40:30.228Z,53.67
2018-10-03T13:43:05.453Z,51.71
2018-10-03T13:45:33.950Z,52.22
2018-10-03T13:48:02.455Z,51.62
2018-10-03T13:50:30.968Z,51.09
2018-10-03T13:52:59.497Z,51.39
2018-10-03T13:55:28.032Z,50.88
2018-10-03T13:57:56.569Z,51.37
2018-10-03T14:00:25.295Z,51.16
2018-10-03T14:02:53.814Z,51.81
2018-10-03T14:05:22.294Z,52.46
2018-10-03T14:07:50.996Z,53.21
2018-10-03T14:10:19.474Z,51.74
2018-10-03T14:12:47.982Z,53.00
2018-10-03T14:15:16.554Z,51.80
2018-10-03T14:17:45.110Z,52.43
2018-10-03T14:20:13.715Z,51.95
2018-10-03T14:22:42.273Z,52.12
2018-10-03T14:25:10.734Z,51.82
2018-10-03T14:27:39.311Z,52.39
2018-10-03T14:30:07.914Z,53.56
2018-10-03T14:32:36.381Z,53.86
2018-10-03T14:35:05.048Z,54.99
2018-10-03T14:37:33.882Z,53.70
2018-10-03T14:40:02.466Z,53.79
2018-10-03T14:42:30.954Z,54.40
2018-10-03T14:44:59.551Z,53.83
2018-10-03T14:47:28.037Z,53.65
2018-10-03T14:49:56.490Z,53.51
2018-10-03T14:52:25.021Z,53.59
2018-10-03T14:54:53.549Z,52.06
2018-10-03T14:57:22.049Z,53.36
2018-10-03T14:59:50.532Z,53.59
2018-10-03T15:02:19.122Z,53.00
2018-10-03T15:04:47.663Z,53.15
2018-10-03T15:07:16.261Z,54.61
2018-10-03T15:09:44.882Z,54.33
2018-10-03T15:12:13.482Z,53.15
2018-10-03T15:14:41.983Z,53.13
2018-10-03T15:17:10.638Z,53.30
2018-10-03T15:19:39.752Z,53.67
2018-10-03T15:22:08.419Z,54.78
2018-10-03T15:24:36.976Z,54.59
2018-10-03T15:27:05.560Z,54.11
2018-10-03T15:29:34.148Z,53.88
2018-10-03T15:32:02.699Z,53.75
2018-10-03T15:34:31.301Z,53.62
2018-10-03T15:36:59.905Z,54.00
2018-10-03T15:39:28.480Z,54.18
2018-10-03T15:41:56.995Z,54.75
2018-10-03T15:44:25.515Z,53.36
2018-10-03T15:46:54.206Z,53.89
2018-10-03T15:49:22.690Z,54.43
2018-10-03T15:51:51.188Z,55.31
2018-10-03T15:54:19.701Z,55.08
2018-10-03T15:56:48.325Z,54.97
2018-10-03T15:59:23.436Z,55.90
2018-10-03T16:01:51.985Z,55.41
2018-10-03T16:04:20.545Z,55.75
2018-10-03T16:06:49.056Z,56.32
2018-10-03T16:09:17.575Z,57.03
2018-10-03T16:11:46.118Z,55.89
2018-10-03T16:14:14.614Z,57.32
2018-10-03T16:16:43.160Z,58.23
2018-10-03T16:19:11.769Z,58.64
2018-10-03T16:21:40.340Z,59.77
2018-10-03T16:24:08.829Z,59.07
2018-10-03T16:26:37.480Z,59.04
2018-10-03T16:29:06.770Z,59.67
2018-10-03T16:31:35.317Z,60.29
2018-10-03T16:34:03.826Z,60.38
2018-10-03T16:36:32.449Z,60.42
2018-10-03T16:39:01.241Z,61.19
2018-10-03T16:41:29.559Z,61.58
2018-10-03T16:43:58.103Z,62.05
2018-10-03T16:46:26.770Z,62.21
2018-10-03T16:48:55.298Z,61.97
2018-10-03T16:51:23.863Z,62.15
2018-10-03T16:53:52.349Z,62.20
2018-10-03T16:56:20.966Z,61.98
2018-10-03T16:58:49.475Z,62.37
2018-10-03T17:01:18.013Z,63.17
2018-10-03T17:03:46.601Z,63.23
2018-10-03T17:06:15.226Z,63.25
2018-10-03T17:08:43.789Z,62.72
2018-10-03T17:11:12.285Z,62.73
2018-10-03T17:14:44.266Z,63.54
2018-10-03T17:17:12.794Z,63.26
2018-10-03T17:19:41.412Z,62.96
2018-10-03T17:22:10.158Z,63.63
2018-10-03T17:24:39.205Z,63.68
2018-10-03T17:27:07.811Z,63.06
2018-10-03T17:29:36.343Z,62.82
2018-10-03T17:32:04.858Z,63.84
2018-10-03T17:34:33.961Z,63.57
2018-10-03T17:37:02.548Z,63.45
2018-10-03T17:39:31.082Z,63.94
2018-10-03T17:41:59.808Z,64.38
2018-10-03T17:44:31.521Z,64.13
2018-10-03T17:48:24.534Z,65.19
2018-10-03T17:50:53.102Z,64.45
2018-10-03T17:53:21.648Z,64.63
2018-10-03T17:55:50.445Z,65.19
2018-10-03T17:58:19.037Z,65.37
2018-10-03T18:00:47.542Z,66.48
2018-10-03T18:03:16.190Z,66.76
2018-10-03T18:05:44.755Z,67.14
2018-10-03T18:08:14.054Z,67.33
2018-10-03T18:10:42.596Z,68.16
2018-10-03T18:13:11.266Z,68.47
2018-10-03T18:15:41.098Z,69.19
2018-10-03T18:18:09.774Z,69.66
2018-10-03T18:20:44.974Z,69.64
2018-10-03T18:23:13.646Z,70.05
2018-10-03T18:25:42.321Z,70.43
2018-10-03T18:28:11.090Z,71.25
2018-10-03T18:30:39.945Z,71.78
2018-10-03T18:33:08.836Z,71.97
2018-10-03T18:35:37.496Z,72.85
2018-10-03T18:38:06.116Z,74.34
2018-10-03T18:40:34.860Z,74.12
2018-10-03T18:43:03.400Z,74.07
2018-10-03T18:45:32.161Z,74.31
2018-10-03T18:48:00.807Z,75.01
2018-10-03T18:50:29.354Z,75.34
2018-10-03T18:52:58.092Z,76.11
2018-10-03T18:55:26.652Z,76.08
2018-10-03T18:57:56.059Z,77.00
2018-10-03T19:00:24.781Z,77.30
2018-10-03T19:02:53.421Z,76.74
2018-10-03T19:05:22.247Z,77.47
2018-10-03T19:07:50.936Z,77.65
2018-10-03T19:10:19.523Z,77.36
2018-10-03T19:12:48.030Z,77.12
2018-10-03T19:15:16.589Z,76.77
2018-10-03T19:17:45.060Z,76.86
2018-10-03T19:20:13.741Z,77.03
2018-10-03T19:22:42.334Z,77.10
2018-10-03T19:25:10.809Z,77.76
2018-10-03T19:27:39.331Z,78.01
2018-10-03T19:30:07.818Z,78.07
2018-10-03T19:32:36.306Z,77.99
2018-10-03T19:35:05.141Z,77.53
2018-10-03T19:37:33.653Z,78.10
2018-10-03T19:40:02.213Z,77.91
2018-10-03T19:42:30.813Z,77.79
2018-10-03T19:44:59.294Z,78.09
2018-10-03T19:47:28.581Z,78.55
2018-10-03T19:49:57.145Z,79.02
2018-10-03T19:52:25.913Z,78.76
2018-10-03T19:54:54.445Z,78.49
2018-10-03T19:57:23.032Z,77.77
2018-10-03T19:59:51.558Z,77.68
2018-10-03T20:02:20.110Z,77.11
2018-10-03T20:04:48.647Z,77.22
2018-10-03T20:07:17.207Z,76.94
2018-10-03T20:09:45.675Z,76.65
2018-10-03T20:12:14.214Z,76.54
2018-10-03T20:14:42.775Z,76.97
2018-10-03T20:17:11.246Z,76.49
2018-10-03T20:19:39.809Z,76.46
2018-10-03T20:22:11.256Z,76.58
2018-10-03T20:24:40.221Z,76.55
2018-10-03T20:27:09.116Z,76.95
2018-10-03T20:29:37.693Z,77.26
2018-10-03T20:32:06.194Z,77.36
2018-10-03T20:34:34.738Z,77.90
2018-10-03T20:37:03.515Z,78.62
2018-10-03T20:39:31.989Z,79.27
2018-10-03T20:42:00.466Z,79.41
2018-10-03T20:44:29.100Z,79.22
2018-10-03T20:46:57.593Z,79.24
2018-10-03T20:49:26.121Z,79.37
2018-10-03T20:51:54.641Z,79.35
2018-10-03T20:54:23.222Z,79.11
2018-10-03T20:56:51.680Z,79.29
2018-10-03T20:59:20.234Z,79.09
2018-10-03T21:01:48.744Z,79.22
2018-10-03T21:04:17.250Z,78.03
2018-10-03T21:06:45.792Z,77.87
2018-10-03T21:09:14.269Z,77.57
2018-10-03T21:11:42.731Z,78.17
2018-10-03T21:14:11.547Z,77.78
2018-10-03T21:16:40.022Z,78.05
2018-10-03T21:19:08.556Z,78.08
2018-10-03T21:21:37.131Z,78.09
2018-10-03T21:24:05.651Z,78.59
2018-10-03T21:26:34.223Z,78.14
2018-10-03T21:29:02.720Z,78.39
2018-10-03T21:31:31.211Z,78.70
2018-10-03T21:33:59.712Z,78.51
2018-10-03T21:36:28.205Z,78.48
2018-10-03T21:38:56.788Z,78.07
2018-10-03T21:41:25.261Z,78.03
2018-10-03T21:43:53.836Z,78.41
2018-10-03T21:46:22.333Z,78.34
2018-10-03T21:48:50.929Z,78.16
2018-10-03T21:51:19.510Z,78.28
2018-10-03T21:53:48.026Z,78.98
2018-10-03T21:56:16.538Z,78.71
2018-10-03T21:58:45.021Z,78.40
2018-10-03T22:01:13.498Z,78.71
2018-10-03T22:03:41.997Z,78.38
2018-10-03T22:06:10.567Z,78.26
2018-10-03T22:08:39.033Z,78.09
2018-10-03T22:11:07.549Z,77.86
2018-10-03T22:13:36.017Z,77.63
2018-10-03T22:16:04.573Z,77.53
2018-10-03T22:18:33.122Z,77.44
2018-10-03T22:21:01.586Z,77.83
2018-10-03T22:23:30.081Z,77.74
2018-10-03T22:25:58.714Z,77.60
2018-10-03T22:28:27.241Z,77.64
2018-10-03T22:30:55.761Z,77.61
2018-10-03T22:33:24.293Z,77.65
2018-10-03T22:35:53.533Z,77.64
2018-10-03T22:38:22.087Z,77.31
2018-10-03T22:40:50.633Z,77.42
2018-10-03T22:43:19.097Z,77.72
2018-10-03T22:45:47.690Z,77.80
2018-10-03T22:48:16.225Z,77.33
2018-10-03T22:50:44.755Z,77.81
2018-10-03T22:53:13.238Z,77.63
2018-10-03T22:55:41.769Z,77.24
2018-10-03T22:58:10.295Z,77.55
2018-10-03T23:00:38.844Z,77.65
2018-10-03T23:03:08.161Z,77.37
2018-10-03T23:05:36.724Z,77.64
2018-10-03T23:08:05.427Z,78.23
2018-10-03T23:10:33.899Z,78.17
2018-10-03T23:13:02.388Z,78.34
2018-10-03T23:15:30.843Z,78.52
2018-10-03T23:17:59.369Z,78.18
2018-10-03T23:20:27.961Z,78.21
2018-10-03T23:22:56.513Z,78.27
2018-10-03T23:25:25.078Z,78.47
2018-10-03T23:27:53.593Z,78.29
2018-10-03T23:30:22.105Z,78.22
2018-10-03T23:32:57.298Z,78.68
2018-10-03T23:35:25.763Z,78.27
2018-10-03T23:37:54.277Z,78.84
2018-10-03T23:40:22.877Z,79.59
2018-10-03T23:42:51.365Z,79.94
2018-10-03T23:45:19.827Z,80.57
2018-10-03T23:47:48.326Z,81.79
2018-10-03T23:50:16.838Z,83.10
2018-10-03T23:52:45.530Z,83.15
2018-10-03T23:55:14.029Z,83.62
2018-10-03T23:57:42.571Z,83.94
